Time,TemperatureF,DewpointF,PressureIn,WindDirection,WindDirectionDegrees,WindSpeedMPH,WindSpeedGustMPH,Humidity,HourlyPrecipIn,Conditions,Clouds,dailyrainin,SoftwareType,DateUTC
2013-03-28 00:04:00,55.9,13.1,29.90,NNW,348,0.9,0.9,18,0.00,,,0.00,meteobridge,2013-03-28 06:04:00,
2013-03-28 00:09:00,55.9,13.1,29.90,NNW,348,0.0,0.0,18,0.00,,,0.00,meteobridge,2013-03-28 06:09:00,
2013-03-28 00:14:00,55.9,13.1,29.89,NNW,348,0.0,0.0,18,0.00,,,0.00,meteobridge,2013-03-28 06:14:00,
2013-03-28 00:20:00,55.9,13.1,29.90,NNW,348,0.0,0.0,18,0.00,,,0.00,meteobridge,2013-03-28 06:20:00,
2013-03-28 00:25:00,55.8,12.9,29.90,NNW,348,0.0,0.0,18,0.00,,,0.00,meteobridge,2013-03-28 06:25:00,
2013-03-28 00:30:00,55.6,12.7,29.90,NNW,348,0.0,0.0,18,0.00,,,0.00,meteobridge,2013-03-28 06:30:00,
2013-03-28 00:35:00,55.6,14.0,29.90,North,349,0.0,0.9,19,0.00,,,0.00,meteobridge,2013-03-28 06:35:00,
2013-03-28 00:40:00,55.8,14.2,29.90,North,350,0.0,0.9,19,0.00,,,0.00,meteobridge,2013-03-28 06:40:00,
2013-03-28 00:46:00,55.8,12.9,29.90,North,350,0.0,0.0,18,0.00,,,0.00,meteobridge,2013-03-28 06:46:00,
2013-03-28 00:51:00,55.6,12.7,29.90,North,350,0.9,0.9,18,0.00,,,0.00,meteobridge,2013-03-28 06:51:00,
2013-03-28 00:56:00,55.8,12.9,29.90,North,350,0.0,0.0,18,0.00,,,0.00,meteobridge,2013-03-28 06:56:00,
2013-03-28 01:01:00,55.8,12.9,29.90,North,350,0.0,0.0,18,0.00,,,0.00,meteobridge,2013-03-28 07:01:00,
2013-03-28 01:06:00,55.6,12.7,29.90,North,350,0.0,0.0,18,0.00,,,0.00,meteobridge,2013-03-28 07:06:00,
2013-03-28 01:11:00,55.2,14.9,29.90,North,350,0.9,0.9,20,0.00,,,0.00,meteobridge,2013-03-28 07:11:00,
2013-03-28 01:17:00,54.9,13.3,29.90,North,350,0.0,0.0,19,0.00,,,0.00,meteobridge,2013-03-28 07:17:00,
2013-03-28 01:22:00,55.0,13.5,29.90,North,350,0.0,0.0,19,0.00,,,0.00,meteobridge,2013-03-28 07:22:00,
2013-03-28 01:27:00,54.9,14.5,29.90,North,350,0.0,0.0,20,0.00,,,0.00,meteobridge,2013-03-28 07:27:00,
2013-03-28 01:32:00,54.7,13.3,29.91,East,96,0.9,2.9,19,0.00,,,0.00,meteobridge,2013-03-28 07:32:00,
2013-03-28 01:37:00,54.7,14.4,29.91,SE,141,0.0,0.9,20,0.00,,,0.00,meteobridge,2013-03-28 07:37:00,
2013-03-28 01:42:00,55.0,12.2,29.91,ESE,109,0.0,0.9,18,0.00,,,0.00,meteobridge,2013-03-28 07:42:00,
2013-03-28 01:47:00,55.2,11.1,29.91,ESE,116,2.9,2.9,17,0.00,,,0.00,meteobridge,2013-03-28 07:47:00,
2013-03-28 01:52:00,55.9,9.0,29.91,ESE,121,2.9,4.9,15,0.00,,,0.00,meteobridge,2013-03-28 07:52:00,
2013-03-28 01:57:00,56.1,9.1,29.91,SSE,155,0.0,0.9,15,0.00,,,0.00,meteobridge,2013-03-28 07:57:00,
2013-03-28 02:02:00,56.3,9.1,29.91,SSE,150,0.9,4.0,15,0.00,,,0.00,meteobridge,2013-03-28 08:02:00,
2013-03-28 02:08:00,56.5,9.3,29.91,SE,139,0.9,2.9,15,0.00,,,0.00,meteobridge,2013-03-28 08:08:00,
2013-03-28 02:13:00,56.3,9.1,29.91,SE,139,0.0,0.9,15,0.00,,,0.00,meteobridge,2013-03-28 08:13:00,
2013-03-28 02:18:00,55.8,10.2,29.91,South,190,0.0,0.9,16,0.00,,,0.00,meteobridge,2013-03-28 08:18:00,
2013-03-28 02:23:00,55.6,10.0,29.91,South,190,0.0,0.9,16,0.00,,,0.00,meteobridge,2013-03-28 08:23:00,
2013-03-28 02:28:00,55.0,9.7,29.91,South,177,2.0,2.0,16,0.00,,,0.00,meteobridge,2013-03-28 08:28:00,
2013-03-28 02:33:00,55.6,10.0,29.91,SSE,168,0.0,2.0,16,0.00,,,0.00,meteobridge,2013-03-28 08:33:00,
2013-03-28 02:38:00,55.2,9.9,29.91,SSE,147,0.9,2.9,16,0.00,,,0.00,meteobridge,2013-03-28 08:38:00,
2013-03-28 02:43:00,55.0,9.7,29.91,SSW,194,0.9,0.9,16,0.00,,,0.00,meteobridge,2013-03-28 08:43:00,
2013-03-28 02:48:00,55.0,9.7,29.91,SW,214,2.0,2.0,16,0.00,,,0.00,meteobridge,2013-03-28 08:48:00,
2013-03-28 02:53:00,55.0,8.2,29.91,SE,140,2.0,4.0,15,0.00,,,0.00,meteobridge,2013-03-28 08:53:00,
2013-03-28 02:59:00,55.2,8.4,29.91,SSE,147,2.0,4.0,15,0.00,,,0.00,meteobridge,2013-03-28 08:59:00,
2013-03-28 03:04:00,55.2,8.4,29.91,SE,144,2.0,2.9,15,0.00,,,0.00,meteobridge,2013-03-28 09:04:00,
2013-03-28 03:09:00,55.0,8.2,29.91,SSE,153,2.0,2.9,15,0.00,,,0.00,meteobridge,2013-03-28 09:09:00,
2013-03-28 03:14:00,55.0,9.7,29.91,SSE,147,0.9,4.0,16,0.00,,,0.00,meteobridge,2013-03-28 09:14:00,
2013-03-28 03:19:00,54.9,9.5,29.90,SE,136,0.9,2.0,16,0.00,,,0.00,meteobridge,2013-03-28 09:19:00,
2013-03-28 03:24:00,54.9,9.5,29.89,East,82,0.0,0.9,16,0.00,,,0.00,meteobridge,2013-03-28 09:24:00,
2013-03-28 03:29:00,54.5,9.1,29.89,East,82,0.0,2.0,16,0.00,,,0.00,meteobridge,2013-03-28 09:29:00,
2013-03-28 03:34:00,54.1,10.2,29.89,SE,136,0.9,0.9,17,0.00,,,0.00,meteobridge,2013-03-28 09:34:00,
2013-03-28 03:39:00,54.0,10.0,29.89,SE,141,0.9,2.9,17,0.00,,,0.00,meteobridge,2013-03-28 09:39:00,
2013-03-28 03:44:00,54.1,10.2,29.89,SE,146,0.9,2.9,17,0.00,,,0.00,meteobridge,2013-03-28 09:44:00,
2013-03-28 03:50:00,54.1,11.5,29.89,SE,135,0.0,2.0,18,0.00,,,0.00,meteobridge,2013-03-28 09:50:00,
2013-03-28 03:55:00,54.1,10.2,29.90,SE,134,0.9,0.9,17,0.00,,,0.00,meteobridge,2013-03-28 09:55:00,
2013-03-28 04:00:00,54.1,11.5,29.89,SE,134,0.0,0.0,18,0.00,,,0.00,meteobridge,2013-03-28 10:00:00,
2013-03-28 04:05:00,54.0,11.5,29.90,SE,134,0.0,0.0,18,0.00,,,0.00,meteobridge,2013-03-28 10:05:00,
2013-03-28 04:10:00,53.6,11.1,29.89,SE,134,0.0,0.0,18,0.00,,,0.00,meteobridge,2013-03-28 10:10:00,
2013-03-28 04:15:00,53.2,12.0,29.89,SE,134,0.0,0.0,19,0.00,,,0.00,meteobridge,2013-03-28 10:15:00,
2013-03-28 04:20:00,53.1,11.8,29.89,SE,134,0.0,0.0,19,0.00,,,0.00,meteobridge,2013-03-28 10:20:00,
2013-03-28 04:25:00,52.7,12.7,29.89,SE,134,0.0,0.0,20,0.00,,,0.00,meteobridge,2013-03-28 10:25:00,
2013-03-28 04:30:00,52.2,13.5,29.89,SE,134,0.0,0.0,21,0.00,,,0.00,meteobridge,2013-03-28 10:30:00,
2013-03-28 04:35:00,51.8,13.1,29.89,SE,134,0.0,0.0,21,0.00,,,0.00,meteobridge,2013-03-28 10:35:00,
2013-03-28 04:41:00,51.4,12.7,29.89,SE,134,0.0,0.0,21,0.00,,,0.00,meteobridge,2013-03-28 10:41:00,
2013-03-28 04:46:00,51.3,13.6,29.89,SE,134,0.0,0.0,22,0.00,,,0.00,meteobridge,2013-03-28 10:46:00,
2013-03-28 04:51:00,51.1,13.5,29.89,SE,134,0.0,0.0,22,0.00,,,0.00,meteobridge,2013-03-28 10:51:00,
2013-03-28 04:56:00,50.7,13.3,29.89,SE,134,0.0,0.0,22,0.00,,,0.00,meteobridge,2013-03-28 10:56:00,
2013-03-28 05:01:00,50.5,14.2,29.89,SE,134,0.0,0.0,23,0.00,,,0.00,meteobridge,2013-03-28 11:01:00,
2013-03-28 05:06:00,50.4,12.9,29.89,SE,134,0.0,0.0,22,0.00,,,0.00,meteobridge,2013-03-28 11:06:00,
2013-03-28 05:12:00,50.5,14.2,29.89,SE,134,0.0,0.0,23,0.00,,,0.00,meteobridge,2013-03-28 11:12:00,
2013-03-28 05:17:00,50.5,13.1,29.89,SE,134,0.0,0.0,22,0.00,,,0.00,meteobridge,2013-03-28 11:17:00,
2013-03-28 05:22:00,50.2,13.8,29.90,SE,134,0.0,0.0,23,0.00,,,0.00,meteobridge,2013-03-28 11:22:00,
2013-03-28 05:27:00,49.6,13.3,29.90,SE,134,0.0,0.0,23,0.00,,,0.00,meteobridge,2013-03-28 11:27:00,
2013-03-28 05:32:00,49.6,14.4,29.90,SE,134,0.0,0.0,24,0.00,,,0.00,meteobridge,2013-03-28 11:32:00,
2013-03-28 05:37:00,49.5,15.1,29.90,SE,134,0.0,0.0,25,0.00,,,0.00,meteobridge,2013-03-28 11:37:00,
2013-03-28 05:43:00,49.1,16.5,29.90,SE,134,0.0,0.0,27,0.00,,,0.00,meteobridge,2013-03-28 11:43:00,
2013-03-28 05:48:00,48.9,15.4,29.90,SE,134,0.0,0.0,26,0.00,,,0.00,meteobridge,2013-03-28 11:48:00,
2013-03-28 05:53:00,48.6,15.3,29.90,SE,134,0.0,0.0,26,0.00,,,0.00,meteobridge,2013-03-28 11:53:00,
2013-03-28 05:58:00,48.4,15.1,29.91,SE,134,0.0,0.0,26,0.00,,,0.00,meteobridge,2013-03-28 11:58:00,
2013-03-28 06:03:00,48.4,15.1,29.91,SE,134,0.0,0.0,26,0.00,,,0.00,meteobridge,2013-03-28 12:03:00,
2013-03-28 06:08:00,47.8,16.3,29.91,SE,134,0.0,0.0,28,0.00,,,0.00,meteobridge,2013-03-28 12:08:00,
2013-03-28 06:14:00,47.3,15.8,29.91,SE,134,0.0,0.0,28,0.00,,,0.00,meteobridge,2013-03-28 12:14:00,
2013-03-28 06:19:00,46.9,15.4,29.91,SE,134,0.9,0.9,28,0.00,,,0.00,meteobridge,2013-03-28 12:19:00,
2013-03-28 06:24:00,46.9,14.7,29.91,SE,134,0.0,0.9,27,0.00,,,0.00,meteobridge,2013-03-28 12:24:00,
2013-03-28 06:29:00,47.1,16.5,29.91,SE,134,0.0,0.0,29,0.00,,,0.00,meteobridge,2013-03-28 12:29:00,
2013-03-28 06:35:00,47.1,15.6,29.91,SE,134,0.0,0.0,28,0.00,,,0.00,meteobridge,2013-03-28 12:35:00,
2013-03-28 06:40:00,46.9,15.4,29.92,SE,134,0.0,0.0,28,0.00,,,0.00,meteobridge,2013-03-28 12:40:00,
2013-03-28 06:45:00,46.9,14.7,29.92,SE,134,0.0,0.0,27,0.00,,,0.00,meteobridge,2013-03-28 12:45:00,
2013-03-28 06:50:00,46.8,15.4,29.92,SE,134,0.0,0.0,28,0.00,,,0.00,meteobridge,2013-03-28 12:50:00,
2013-03-28 06:55:00,46.4,15.1,29.92,SE,134,0.0,0.0,28,0.00,,,0.00,meteobridge,2013-03-28 12:55:00,
2013-03-28 07:00:00,46.0,15.6,29.92,SE,134,0.0,0.0,29,0.00,,,0.00,meteobridge,2013-03-28 13:00:00,
2013-03-28 07:05:00,46.0,15.6,29.92,SE,134,0.9,0.9,29,0.00,,,0.00,meteobridge,2013-03-28 13:05:00,
2013-03-28 07:11:00,45.9,15.4,29.92,SE,134,0.0,0.9,29,0.00,,,0.00,meteobridge,2013-03-28 13:11:00,
2013-03-28 07:16:00,45.5,15.8,29.92,SE,134,0.0,0.0,30,0.00,,,0.00,meteobridge,2013-03-28 13:16:00,
2013-03-28 07:21:00,45.9,16.2,29.92,SE,134,0.0,0.0,30,0.00,,,0.00,meteobridge,2013-03-28 13:21:00,
2013-03-28 07:26:00,46.0,15.6,29.93,SE,134,0.0,0.9,29,0.00,,,0.00,meteobridge,2013-03-28 13:26:00,
2013-03-28 07:31:00,46.0,17.1,29.93,SE,134,0.0,0.9,31,0.00,,,0.00,meteobridge,2013-03-28 13:31:00,
2013-03-28 07:36:00,46.4,15.8,29.93,SE,134,0.0,0.0,29,0.00,,,0.00,meteobridge,2013-03-28 13:36:00,
2013-03-28 07:42:00,47.1,17.2,29.93,SE,134,0.9,0.9,30,0.00,,,0.00,meteobridge,2013-03-28 13:42:00,
2013-03-28 07:47:00,48.4,16.7,29.93,SE,133,0.0,2.0,28,0.00,,,0.00,meteobridge,2013-03-28 13:47:00,
2013-03-28 07:52:00,50.0,16.5,29.93,ESE,123,0.0,0.0,26,0.00,,,0.00,meteobridge,2013-03-28 13:52:00,
2013-03-28 07:57:00,50.7,17.1,29.93,ESE,123,0.0,0.9,26,0.00,,,0.00,meteobridge,2013-03-28 13:57:00,
2013-03-28 08:02:00,50.9,17.2,29.94,ESE,123,0.0,0.0,26,0.00,,,0.00,meteobridge,2013-03-28 14:02:00,
2013-03-28 08:07:00,50.7,15.3,29.94,ESE,123,0.9,0.9,24,0.00,,,0.00,meteobridge,2013-03-28 14:07:00,
2013-03-28 08:12:00,51.6,16.0,29.94,ESE,123,0.0,0.9,24,0.00,,,0.00,meteobridge,2013-03-28 14:12:00,
2013-03-28 08:17:00,52.5,15.8,29.94,ESE,123,0.0,0.9,23,0.00,,,0.00,meteobridge,2013-03-28 14:17:00,
2013-03-28 08:22:00,53.4,15.4,29.94,ESE,116,0.9,2.0,22,0.00,,,0.00,meteobridge,2013-03-28 14:22:00,
2013-03-28 08:27:00,54.7,15.4,29.95,ESE,116,0.0,0.9,21,0.00,,,0.00,meteobridge,2013-03-28 14:27:00,
2013-03-28 08:32:00,55.2,14.9,29.95,SE,125,0.0,2.9,20,0.00,,,0.00,meteobridge,2013-03-28 14:32:00,
2013-03-28 08:37:00,55.9,14.2,29.95,SE,126,0.9,2.9,19,0.00,,,0.00,meteobridge,2013-03-28 14:37:00,
2013-03-28 08:42:00,56.1,14.4,29.96,ESE,107,0.9,2.9,19,0.00,,,0.00,meteobridge,2013-03-28 14:42:00,
2013-03-28 08:47:00,56.8,15.1,29.96,ESE,112,2.0,2.9,19,0.00,,,0.00,meteobridge,2013-03-28 14:47:00,
2013-03-28 08:52:00,57.0,14.0,29.96,ESE,106,2.0,4.0,18,0.00,,,0.00,meteobridge,2013-03-28 14:52:00,
2013-03-28 08:57:00,57.6,14.4,29.96,SE,134,2.0,2.9,18,0.00,,,0.00,meteobridge,2013-03-28 14:57:00,
2013-03-28 09:02:00,57.9,14.7,29.96,South,171,0.9,4.9,18,0.00,,,0.00,meteobridge,2013-03-28 15:02:00,
2013-03-28 09:08:00,58.5,13.8,29.96,South,182,2.0,2.0,17,0.00,,,0.00,meteobridge,2013-03-28 15:08:00,
2013-03-28 09:13:00,58.5,15.1,29.96,SSW,196,0.9,4.9,18,0.00,,,0.00,meteobridge,2013-03-28 15:13:00,
2013-03-28 09:18:00,58.8,15.4,29.95,SSW,213,2.0,4.0,18,0.00,,,0.00,meteobridge,2013-03-28 15:18:00,
2013-03-28 09:23:00,59.5,14.7,29.96,SSW,198,0.9,0.9,17,0.00,,,0.00,meteobridge,2013-03-28 15:23:00,
2013-03-28 09:28:00,59.7,14.9,29.96,South,183,2.0,4.0,17,0.00,,,0.00,meteobridge,2013-03-28 15:28:00,
2013-03-28 09:33:00,59.7,16.2,29.96,SW,225,2.0,4.0,18,0.00,,,0.00,meteobridge,2013-03-28 15:33:00,
2013-03-28 09:38:00,60.3,16.5,29.96,West,277,0.0,2.0,18,0.00,,,0.00,meteobridge,2013-03-28 15:38:00,
2013-03-28 09:43:00,60.4,15.4,29.96,SW,234,0.0,2.0,17,0.00,,,0.00,meteobridge,2013-03-28 15:43:00,
2013-03-28 09:48:00,61.3,16.2,29.96,WNW,299,0.9,2.0,17,0.00,,,0.00,meteobridge,2013-03-28 15:48:00,
2013-03-28 09:53:00,60.8,15.6,29.96,SW,215,0.0,2.9,17,0.00,,,0.00,meteobridge,2013-03-28 15:53:00,
2013-03-28 09:58:00,61.5,14.9,29.96,SSW,198,4.9,6.0,16,0.00,,,0.00,meteobridge,2013-03-28 15:58:00,
2013-03-28 10:03:00,61.3,16.2,29.96,SSW,210,0.9,4.0,17,0.00,,,0.00,meteobridge,2013-03-28 16:03:00,
2013-03-28 10:08:00,62.2,16.9,29.96,SW,222,2.0,4.0,17,0.00,,,0.00,meteobridge,2013-03-28 16:08:00,
2013-03-28 10:13:00,62.1,16.7,29.96,WNW,286,2.0,4.0,17,0.00,,,0.00,meteobridge,2013-03-28 16:13:00,
2013-03-28 10:18:00,62.8,16.0,29.96,SSW,193,0.9,4.0,16,0.00,,,0.00,meteobridge,2013-03-28 16:18:00,
2013-03-28 10:23:00,63.0,17.4,29.96,WSW,243,4.0,4.0,17,0.00,,,0.00,meteobridge,2013-03-28 16:23:00,
2013-03-28 10:29:00,63.0,16.0,29.96,SSW,202,2.0,2.0,16,0.00,,,0.00,meteobridge,2013-03-28 16:29:00,
2013-03-28 10:34:00,63.3,16.3,29.96,SW,228,2.9,4.9,16,0.00,,,0.00,meteobridge,2013-03-28 16:34:00,
2013-03-28 10:39:00,63.1,16.2,29.96,SSW,209,0.9,4.0,16,0.00,,,0.00,meteobridge,2013-03-28 16:39:00,
2013-03-28 10:44:00,64.0,16.9,29.96,West,261,0.0,2.0,16,0.00,,,0.00,meteobridge,2013-03-28 16:44:00,
2013-03-28 10:49:00,64.9,16.2,29.96,SSE,167,2.0,4.0,15,0.00,,,0.00,meteobridge,2013-03-28 16:49:00,
2013-03-28 10:54:00,64.9,16.2,29.96,SW,221,2.9,4.9,15,0.00,,,0.00,meteobridge,2013-03-28 16:54:00,
2013-03-28 10:59:00,64.2,15.6,29.95,WSW,257,2.0,4.0,15,0.00,,,0.00,meteobridge,2013-03-28 16:59:00,
2013-03-28 11:04:00,64.6,15.8,29.95,SSE,148,4.0,4.9,15,0.00,,,0.00,meteobridge,2013-03-28 17:04:00,
2013-03-28 11:09:00,65.7,13.5,29.95,SW,228,2.0,4.9,13,0.00,,,0.00,meteobridge,2013-03-28 17:09:00,
2013-03-28 11:14:00,66.0,12.0,29.95,SW,219,0.9,4.0,12,0.00,,,0.00,meteobridge,2013-03-28 17:14:00,
2013-03-28 11:19:00,66.7,12.6,29.95,WSW,241,6.0,8.1,12,0.00,,,0.00,meteobridge,2013-03-28 17:19:00,
2013-03-28 11:24:00,66.7,12.6,29.95,SSE,166,4.0,6.9,12,0.00,,,0.00,meteobridge,2013-03-28 17:24:00,
2013-03-28 11:29:00,66.6,10.4,29.94,SW,233,2.9,2.9,11,0.00,,,0.00,meteobridge,2013-03-28 17:29:00,
2013-03-28 11:34:00,66.6,12.4,29.94,SSW,211,0.9,2.0,12,0.00,,,0.00,meteobridge,2013-03-28 17:34:00,
2013-03-28 11:39:00,66.9,12.6,29.94,ENE,62,2.0,6.9,12,0.00,,,0.00,meteobridge,2013-03-28 17:39:00,
2013-03-28 11:44:00,68.0,13.5,29.94,East,83,2.0,2.0,12,0.00,,,0.00,meteobridge,2013-03-28 17:44:00,
2013-03-28 11:49:00,68.7,12.0,29.94,SW,221,2.9,6.0,11,0.00,,,0.00,meteobridge,2013-03-28 17:49:00,
2013-03-28 11:54:00,68.4,13.8,29.94,NNW,340,2.0,2.9,12,0.00,,,0.00,meteobridge,2013-03-28 17:54:00,
2013-03-28 11:59:00,67.8,11.3,29.93,North,5,0.0,2.9,11,0.00,,,0.00,meteobridge,2013-03-28 17:59:00,
2013-03-28 12:04:00,69.4,12.6,29.93,SW,229,2.9,6.9,11,0.00,,,0.00,meteobridge,2013-03-28 18:04:00,
2013-03-28 12:09:00,70.5,11.3,29.93,WSW,238,2.9,6.0,10,0.00,,,0.00,meteobridge,2013-03-28 18:09:00,
2013-03-28 12:14:00,70.2,8.6,29.93,WSW,240,2.0,8.1,9,0.00,,,0.00,meteobridge,2013-03-28 18:14:00,
2013-03-28 12:20:00,69.6,8.2,29.93,NW,326,0.9,6.9,9,0.00,,,0.00,meteobridge,2013-03-28 18:20:00,
2013-03-28 12:25:00,69.8,10.8,29.92,SSW,200,4.9,6.0,10,0.00,,,0.00,meteobridge,2013-03-28 18:25:00,
2013-03-28 12:30:00,70.5,11.3,29.92,WNW,288,2.0,2.9,10,0.00,,,0.00,meteobridge,2013-03-28 18:30:00,
2013-03-28 12:35:00,70.7,9.1,29.92,NNW,336,6.0,6.0,9,0.00,,,0.00,meteobridge,2013-03-28 18:35:00,
2013-03-28 12:40:00,70.0,13.1,29.92,NW,317,2.0,4.0,11,0.00,,,0.00,meteobridge,2013-03-28 18:40:00,
2013-03-28 12:45:00,70.5,9.0,29.92,NNW,327,0.9,4.0,9,0.00,,,0.00,meteobridge,2013-03-28 18:45:00,
2013-03-28 12:50:00,70.5,6.3,29.92,WNW,300,0.9,6.0,8,0.00,,,0.00,meteobridge,2013-03-28 18:50:00,
2013-03-28 12:55:00,71.2,6.8,29.92,SSW,210,2.9,8.9,8,0.00,,,0.00,meteobridge,2013-03-28 18:55:00,
2013-03-28 13:06:00,70.5,6.3,29.91,West,269,0.9,0.9,8,0.00,,,0.00,meteobridge,2013-03-28 19:06:00,
2013-03-28 13:11:00,71.2,6.8,29.91,WNW,302,2.0,6.0,8,0.00,,,0.00,meteobridge,2013-03-28 19:11:00,
2013-03-28 13:16:00,72.7,10.6,29.91,SW,224,4.0,6.0,9,0.00,,,0.00,meteobridge,2013-03-28 19:16:00,
2013-03-28 13:21:00,72.3,10.2,29.91,WSW,238,2.0,6.9,9,0.00,,,0.00,meteobridge,2013-03-28 19:21:00,
2013-03-28 13:26:00,71.4,7.0,29.90,NW,314,0.0,6.0,8,0.00,,,0.00,meteobridge,2013-03-28 19:26:00,
2013-03-28 13:31:00,70.3,8.8,29.90,NW,305,4.0,10.1,9,0.00,,,0.00,meteobridge,2013-03-28 19:31:00,
2013-03-28 13:36:00,70.2,8.6,29.90,SW,220,4.9,8.1,9,0.00,,,0.00,meteobridge,2013-03-28 19:36:00,
2013-03-28 13:41:00,70.2,11.1,29.90,SSW,201,2.9,8.9,10,0.00,,,0.00,meteobridge,2013-03-28 19:41:00,
2013-03-28 13:46:00,69.4,10.4,29.90,SW,232,8.1,11.0,10,0.00,,,0.00,meteobridge,2013-03-28 19:46:00,
2013-03-28 13:51:00,69.3,10.4,29.90,SSW,209,4.9,6.0,10,0.00,,,0.00,meteobridge,2013-03-28 19:51:00,
2013-03-28 13:56:00,69.1,12.4,29.90,SW,227,4.0,11.0,11,0.00,,,0.00,meteobridge,2013-03-28 19:56:00,
2013-03-28 14:01:00,69.4,12.6,29.89,SW,223,10.1,10.1,11,0.00,,,0.00,meteobridge,2013-03-28 20:01:00,
2013-03-28 14:06:00,69.3,12.6,29.89,WNW,291,2.9,8.9,11,0.00,,,0.00,meteobridge,2013-03-28 20:06:00,
2013-03-28 14:12:00,69.4,12.6,29.89,SW,220,0.9,6.0,11,0.00,,,0.00,meteobridge,2013-03-28 20:12:00,
2013-03-28 14:17:00,69.6,12.7,29.88,West,275,4.0,8.1,11,0.00,,,0.00,meteobridge,2013-03-28 20:17:00,
2013-03-28 14:22:00,69.8,12.9,29.88,SW,233,4.9,4.9,11,0.00,,,0.00,meteobridge,2013-03-28 20:22:00,
2013-03-28 14:27:00,70.0,13.1,29.88,WSW,257,2.0,4.9,11,0.00,,,0.00,meteobridge,2013-03-28 20:27:00,
2013-03-28 14:32:00,70.2,13.1,29.87,SW,225,4.9,4.9,11,0.00,,,0.00,meteobridge,2013-03-28 20:32:00,
2013-03-28 14:37:00,70.9,11.7,29.87,SSE,168,6.0,10.1,10,0.00,,,0.00,meteobridge,2013-03-28 20:37:00,
2013-03-28 14:42:00,70.7,11.5,29.87,SE,135,4.9,6.9,10,0.00,,,0.00,meteobridge,2013-03-28 20:42:00,
2013-03-28 14:47:00,70.3,11.1,29.87,South,170,2.0,4.9,10,0.00,,,0.00,meteobridge,2013-03-28 20:47:00,
2013-03-28 14:52:00,70.7,11.5,29.86,ENE,74,0.9,4.9,10,0.00,,,0.00,meteobridge,2013-03-28 20:52:00,
2013-03-28 14:57:00,72.9,13.1,29.86,SE,144,4.9,8.9,10,0.00,,,0.00,meteobridge,2013-03-28 20:57:00,
2013-03-28 15:02:00,72.1,12.6,29.86,South,186,2.0,4.0,10,0.00,,,0.00,meteobridge,2013-03-28 21:02:00,
2013-03-28 15:07:00,72.0,10.0,29.85,SSW,211,2.9,12.1,9,0.00,,,0.00,meteobridge,2013-03-28 21:07:00,
2013-03-28 15:12:00,71.8,12.2,29.85,SSW,198,2.9,8.9,10,0.00,,,0.00,meteobridge,2013-03-28 21:12:00,
2013-03-28 15:17:00,71.2,11.8,29.85,SSW,200,4.9,8.1,10,0.00,,,0.00,meteobridge,2013-03-28 21:17:00,
2013-03-28 15:22:00,71.4,12.0,29.85,SE,137,4.9,8.9,10,0.00,,,0.00,meteobridge,2013-03-28 21:22:00,
2013-03-28 15:27:00,71.8,12.2,29.85,SW,225,4.9,8.9,10,0.00,,,0.00,meteobridge,2013-03-28 21:27:00,
2013-03-28 15:32:00,71.8,12.2,29.85,WSW,240,2.0,6.9,10,0.00,,,0.00,meteobridge,2013-03-28 21:32:00,
2013-03-28 15:37:00,72.1,12.6,29.84,West,273,4.9,6.9,10,0.00,,,0.00,meteobridge,2013-03-28 21:37:00,
2013-03-28 15:42:00,71.8,14.4,29.83,NNW,345,0.9,4.0,11,0.00,,,0.00,meteobridge,2013-03-28 21:42:00,
2013-03-28 15:47:00,71.8,12.2,29.83,SSW,200,2.0,6.9,10,0.00,,,0.00,meteobridge,2013-03-28 21:47:00,
2013-03-28 15:52:00,71.8,12.2,29.83,SSW,209,4.0,8.9,10,0.00,,,0.00,meteobridge,2013-03-28 21:52:00,
2013-03-28 15:57:00,72.0,12.4,29.83,West,279,0.9,2.9,10,0.00,,,0.00,meteobridge,2013-03-28 21:57:00,
2013-03-28 16:03:00,71.8,12.2,29.83,SW,236,4.9,8.9,10,0.00,,,0.00,meteobridge,2013-03-28 22:03:00,
2013-03-28 16:08:00,71.4,14.2,29.83,WNW,291,4.9,15.0,11,0.00,,,0.00,meteobridge,2013-03-28 22:08:00,
2013-03-28 16:13:00,71.4,14.2,29.83,SW,223,4.9,12.1,11,0.00,,,0.00,meteobridge,2013-03-28 22:13:00,
2013-03-28 16:18:00,70.9,13.8,29.83,SW,221,2.9,6.0,11,0.00,,,0.00,meteobridge,2013-03-28 22:18:00,
2013-03-28 16:23:00,71.2,14.0,29.83,NW,323,2.0,8.9,11,0.00,,,0.00,meteobridge,2013-03-28 22:23:00,
2013-03-28 16:28:00,71.6,14.4,29.82,SSE,150,8.9,11.0,11,0.00,,,0.00,meteobridge,2013-03-28 22:28:00,
2013-03-28 16:33:00,70.7,15.6,29.83,SSW,201,2.0,6.9,12,0.00,,,0.00,meteobridge,2013-03-28 22:33:00,
2013-03-28 16:38:00,71.2,16.0,29.83,WSW,257,4.9,6.9,12,0.00,,,0.00,meteobridge,2013-03-28 22:38:00,
2013-03-28 16:43:00,71.8,14.4,29.83,NNW,334,2.9,4.0,11,0.00,,,0.00,meteobridge,2013-03-28 22:43:00,
2013-03-28 16:48:00,72.0,14.5,29.82,WNW,294,2.9,6.9,11,0.00,,,0.00,meteobridge,2013-03-28 22:48:00,
2013-03-28 16:53:00,72.1,14.7,29.82,West,266,8.1,15.0,11,0.00,,,0.00,meteobridge,2013-03-28 22:53:00,
2013-03-28 16:58:00,72.1,14.7,29.82,WSW,240,0.0,6.0,11,0.00,,,0.00,meteobridge,2013-03-28 22:58:00,
2013-03-28 17:03:00,72.7,15.1,29.82,WSW,257,0.0,4.0,11,0.00,,,0.00,meteobridge,2013-03-28 23:03:00,
2013-03-28 17:08:00,72.1,14.7,29.82,SW,229,2.9,4.9,11,0.00,,,0.00,meteobridge,2013-03-28 23:08:00,
2013-03-28 17:14:00,71.8,14.4,29.82,SSW,210,4.9,6.9,11,0.00,,,0.00,meteobridge,2013-03-28 23:14:00,
2013-03-28 17:19:00,72.1,14.7,29.82,West,279,2.0,14.1,11,0.00,,,0.00,meteobridge,2013-03-28 23:19:00,
2013-03-28 17:24:00,72.1,14.7,29.82,SSW,212,2.9,2.9,11,0.00,,,0.00,meteobridge,2013-03-28 23:24:00,
2013-03-28 17:29:00,71.8,14.4,29.82,NW,322,6.0,11.0,11,0.00,,,0.00,meteobridge,2013-03-28 23:29:00,
2013-03-28 17:34:00,71.1,13.8,29.82,South,177,4.0,6.0,11,0.00,,,0.00,meteobridge,2013-03-28 23:34:00,
2013-03-28 17:39:00,70.7,13.6,29.82,West,270,0.9,8.1,11,0.00,,,0.00,meteobridge,2013-03-28 23:39:00,
2013-03-28 17:44:00,70.3,15.3,29.82,NW,315,0.9,2.0,12,0.00,,,0.00,meteobridge,2013-03-28 23:44:00,
2013-03-28 17:49:00,70.3,13.3,29.82,WNW,287,0.0,4.0,11,0.00,,,0.00,meteobridge,2013-03-28 23:49:00,
2013-03-28 17:54:00,70.3,15.3,29.82,SSW,202,2.9,4.0,12,0.00,,,0.00,meteobridge,2013-03-28 23:54:00,
2013-03-28 17:59:00,70.2,15.1,29.83,WSW,257,4.0,4.0,12,0.00,,,0.00,meteobridge,2013-03-28 23:59:00,
2013-03-28 18:04:00,70.2,15.1,29.83,NW,320,0.9,6.9,12,0.00,,,0.00,meteobridge,2013-03-29 00:04:00,
2013-03-28 18:09:00,70.2,15.1,29.83,WNW,292,0.0,2.9,12,0.00,,,0.00,meteobridge,2013-03-29 00:09:00,
2013-03-28 18:14:00,70.0,15.1,29.83,West,272,0.0,2.9,12,0.00,,,0.00,meteobridge,2013-03-29 00:14:00,
2013-03-28 18:19:00,70.0,15.1,29.83,NW,309,0.9,4.9,12,0.00,,,0.00,meteobridge,2013-03-29 00:19:00,
2013-03-28 18:24:00,69.6,14.7,29.83,NW,323,0.0,2.0,12,0.00,,,0.00,meteobridge,2013-03-29 00:24:00,
2013-03-28 18:30:00,69.4,14.5,29.83,SSE,168,0.0,4.9,12,0.00,,,0.00,meteobridge,2013-03-29 00:30:00,
2013-03-28 18:35:00,69.3,16.3,29.84,WNW,300,4.9,8.1,13,0.00,,,0.00,meteobridge,2013-03-29 00:35:00,
2013-03-28 18:40:00,68.9,16.0,29.84,SW,218,2.9,2.9,13,0.00,,,0.00,meteobridge,2013-03-29 00:40:00,
2013-03-28 18:45:00,68.7,17.6,29.85,SW,225,8.1,17.0,14,0.00,,,0.00,meteobridge,2013-03-29 00:45:00,
2013-03-28 18:50:00,68.5,17.4,29.85,SSE,157,4.0,4.0,14,0.00,,,0.00,meteobridge,2013-03-29 00:50:00,
2013-03-28 18:55:00,68.4,17.2,29.85,SSE,153,0.0,2.0,14,0.00,,,0.00,meteobridge,2013-03-29 00:55:00,
2013-03-28 19:00:00,68.0,18.7,29.85,North,5,2.9,8.1,15,0.00,,,0.00,meteobridge,2013-03-29 01:00:00,
2013-03-28 19:05:00,68.0,18.7,29.86,SW,215,4.0,13.0,15,0.00,,,0.00,meteobridge,2013-03-29 01:05:00,
2013-03-28 19:10:00,67.8,18.5,29.86,WNW,283,2.9,6.0,15,0.00,,,0.00,meteobridge,2013-03-29 01:10:00,
2013-03-28 19:15:00,67.5,19.8,29.86,NNE,12,4.9,6.0,16,0.00,,,0.00,meteobridge,2013-03-29 01:15:00,
2013-03-28 19:20:00,67.5,19.8,29.86,East,91,2.9,4.9,16,0.00,,,0.00,meteobridge,2013-03-29 01:20:00,
2013-03-28 19:25:00,67.5,18.1,29.87,East,82,0.9,2.9,15,0.00,,,0.00,meteobridge,2013-03-29 01:25:00,
2013-03-28 19:30:00,67.3,19.6,29.86,SSE,166,0.0,2.9,16,0.00,,,0.00,meteobridge,2013-03-29 01:30:00,
2013-03-28 19:35:00,66.9,19.2,29.87,South,186,0.9,2.0,16,0.00,,,0.00,meteobridge,2013-03-29 01:35:00,
2013-03-28 19:40:00,66.9,19.2,29.87,ESE,107,0.0,2.9,16,0.00,,,0.00,meteobridge,2013-03-29 01:40:00,
2013-03-28 19:45:00,66.6,20.3,29.87,NNW,335,6.9,6.9,17,0.00,,,0.00,meteobridge,2013-03-29 01:45:00,
2013-03-28 19:50:00,66.7,20.5,29.87,NNW,345,2.0,4.9,17,0.00,,,0.00,meteobridge,2013-03-29 01:50:00,
2013-03-28 19:55:00,66.7,20.5,29.87,North,5,2.9,17.9,17,0.00,,,0.00,meteobridge,2013-03-29 01:55:00,
2013-03-28 20:00:00,66.6,20.3,29.87,North,10,2.9,11.0,17,0.00,,,0.00,meteobridge,2013-03-29 02:00:00,
2013-03-28 20:05:00,66.6,20.3,29.87,NNE,17,6.0,6.9,17,0.00,,,0.00,meteobridge,2013-03-29 02:05:00,
2013-03-28 20:10:00,66.4,20.3,29.85,North,355,4.0,6.9,17,0.00,,,0.00,meteobridge,2013-03-29 02:10:00,
2013-03-28 20:16:00,66.2,21.4,29.84,ENE,70,4.9,6.9,18,0.00,,,0.00,meteobridge,2013-03-29 02:16:00,
2013-03-28 20:21:00,66.0,21.2,29.85,NNE,17,0.9,2.9,18,0.00,,,0.00,meteobridge,2013-03-29 02:21:00,
2013-03-28 20:26:00,65.8,21.2,29.85,East,94,4.9,4.9,18,0.00,,,0.00,meteobridge,2013-03-29 02:26:00,
2013-03-28 20:31:00,65.8,21.2,29.86,NE,48,2.9,6.0,18,0.00,,,0.00,meteobridge,2013-03-29 02:31:00,
2013-03-28 20:36:00,65.7,21.0,29.86,NE,51,0.9,2.0,18,0.00,,,0.00,meteobridge,2013-03-29 02:36:00,
2013-03-28 20:41:00,65.7,21.0,29.85,NNE,23,0.9,2.9,18,0.00,,,0.00,meteobridge,2013-03-29 02:41:00,
2013-03-28 20:46:00,65.5,20.8,29.86,NE,41,0.0,2.0,18,0.00,,,0.00,meteobridge,2013-03-29 02:46:00,
2013-03-28 20:51:00,65.5,20.8,29.86,ESE,107,0.9,2.0,18,0.00,,,0.00,meteobridge,2013-03-29 02:51:00,
2013-03-28 20:56:00,65.5,20.8,29.86,East,93,0.0,2.9,18,0.00,,,0.00,meteobridge,2013-03-29 02:56:00,
2013-03-28 21:01:00,65.5,20.8,29.87,NE,49,0.0,0.9,18,0.00,,,0.00,meteobridge,2013-03-29 03:01:00,
2013-03-28 21:06:00,65.3,21.9,29.87,NE,49,0.0,0.0,19,0.00,,,0.00,meteobridge,2013-03-29 03:06:00,
2013-03-28 21:11:00,64.9,21.7,29.87,ESE,117,2.0,2.0,19,0.00,,,0.00,meteobridge,2013-03-29 03:11:00,
2013-03-28 21:16:00,64.9,21.7,29.87,SE,132,4.0,4.9,19,0.00,,,0.00,meteobridge,2013-03-29 03:16:00,
2013-03-28 21:22:00,64.8,21.6,29.88,SSE,163,4.9,6.0,19,0.00,,,0.00,meteobridge,2013-03-29 03:22:00,
2013-03-28 21:27:00,64.9,20.5,29.88,South,186,2.9,15.0,18,0.00,,,0.00,meteobridge,2013-03-29 03:27:00,
2013-03-28 21:32:00,65.7,21.0,29.88,SSW,211,4.9,6.9,18,0.00,,,0.00,meteobridge,2013-03-29 03:32:00,
2013-03-28 21:37:00,65.7,21.0,29.88,SE,137,2.0,2.9,18,0.00,,,0.00,meteobridge,2013-03-29 03:37:00,
2013-03-28 21:42:00,65.5,20.8,29.88,South,169,4.0,6.0,18,0.00,,,0.00,meteobridge,2013-03-29 03:42:00,
2013-03-28 21:47:00,65.5,20.8,29.88,SSE,154,2.0,6.9,18,0.00,,,0.00,meteobridge,2013-03-29 03:47:00,
2013-03-28 21:52:00,65.5,20.8,29.89,WSW,237,2.0,4.9,18,0.00,,,0.00,meteobridge,2013-03-29 03:52:00,
2013-03-28 21:57:00,65.1,20.5,29.88,West,259,0.9,2.9,18,0.00,,,0.00,meteobridge,2013-03-29 03:57:00,
2013-03-28 22:00:00,64.9,20.5,29.88,South,182,0.0,4.0,18,0.00,,,0.00,meteobridge,2013-03-29 04:00:00,
2013-03-28 22:01:00,64.9,20.5,29.88,South,182,0.0,0.9,18,0.00,,,0.00,meteobridge,2013-03-29 04:01:00,
2013-03-28 22:06:00,64.8,21.6,29.89,SW,225,0.9,2.0,19,0.00,,,0.00,meteobridge,2013-03-29 04:06:00,
2013-03-28 22:11:00,64.0,21.0,29.88,WNW,284,0.0,0.9,19,0.00,,,0.00,meteobridge,2013-03-29 04:11:00,
2013-03-28 22:17:00,63.5,20.5,29.89,WNW,284,0.0,0.0,19,0.00,,,0.00,meteobridge,2013-03-29 04:17:00,
2013-03-28 22:22:00,62.8,21.0,29.89,SE,146,0.0,2.0,20,0.00,,,0.00,meteobridge,2013-03-29 04:22:00,
2013-03-28 22:27:00,62.6,22.1,29.89,South,178,0.0,2.0,21,0.00,,,0.00,meteobridge,2013-03-29 04:27:00,
2013-03-28 22:32:00,62.1,21.7,29.89,SW,228,2.0,6.0,21,0.00,,,0.00,meteobridge,2013-03-29 04:32:00,
2013-03-28 22:37:00,62.2,21.7,29.89,South,169,0.9,2.0,21,0.00,,,0.00,meteobridge,2013-03-29 04:37:00,
2013-03-28 22:42:00,62.1,21.7,29.89,South,169,0.9,2.9,21,0.00,,,0.00,meteobridge,2013-03-29 04:42:00,
2013-03-28 22:47:00,61.7,22.5,29.89,SSE,148,4.0,4.0,22,0.00,,,0.00,meteobridge,2013-03-29 04:47:00,
2013-03-28 22:52:00,61.3,22.1,29.89,SSE,148,0.9,2.9,22,0.00,,,0.00,meteobridge,2013-03-29 04:52:00,
2013-03-28 22:57:00,61.3,22.1,29.89,SSE,155,0.9,4.0,22,0.00,,,0.00,meteobridge,2013-03-29 04:57:00,
2013-03-28 23:02:00,61.3,22.1,29.89,SSE,167,0.9,2.9,22,0.00,,,0.00,meteobridge,2013-03-29 05:02:00,
2013-03-28 23:07:00,61.2,23.0,29.89,SSE,161,2.0,2.0,23,0.00,,,0.00,meteobridge,2013-03-29 05:07:00,
2013-03-28 23:12:00,60.6,22.6,29.89,SSE,161,0.0,0.0,23,0.00,,,0.00,meteobridge,2013-03-29 05:12:00,
2013-03-28 23:18:00,60.3,22.3,29.89,SSE,160,2.0,2.0,23,0.00,,,0.00,meteobridge,2013-03-29 05:18:00,
2013-03-28 23:33:00,59.2,23.4,29.90,SSE,155,0.0,0.0,25,0.00,,,0.00,meteobridge,2013-03-29 05:33:00,
2013-03-28 23:38:00,58.6,22.8,29.90,SSE,155,0.0,0.0,25,0.00,,,0.00,meteobridge,2013-03-29 05:38:00,
2013-03-28 23:43:00,58.5,23.7,29.90,SSE,155,0.0,0.9,26,0.00,,,0.00,meteobridge,2013-03-29 05:43:00,
2013-03-28 23:48:00,58.5,22.8,29.90,SSE,155,0.0,0.0,25,0.00,,,0.00,meteobridge,2013-03-29 05:48:00,
2013-03-28 23:54:00,57.9,23.2,29.90,SSE,155,0.0,0.0,26,0.00,,,0.00,meteobridge,2013-03-29 05:54:00,
2013-03-28 23:59:00,57.4,23.7,29.91,SSE,155,0.0,0.0,27,0.00,,,0.00,meteobridge,2013-03-29 05:59:00,